createdAt,value
2019-03-16T00:00:52.111Z,23.70
2019-03-16T00:03:17.954Z,20.73
2019-03-16T00:05:43.784Z,21.67
2019-03-16T00:08:09.666Z,21.50
2019-03-16T00:10:35.510Z,21.00
2019-03-16T00:13:01.354Z,18.40
2019-03-16T00:15:27.286Z,19.97
2019-03-16T00:17:53.118Z,21.63
2019-03-16T00:20:19.051Z,22.67
2019-03-16T00:22:44.914Z,18.13
2019-03-16T00:25:10.756Z,21.20
2019-03-16T00:27:36.784Z,18.90
2019-03-16T00:30:13.111Z,21.90
2019-03-16T00:32:39.083Z,21.47
2019-03-16T00:35:05.215Z,20.97
2019-03-16T00:37:31.074Z,20.10
2019-03-16T00:39:56.971Z,17.80
2019-03-16T00:42:23.609Z,19.17
2019-03-16T00:44:49.498Z,16.53
2019-03-16T00:47:15.617Z,19.13
2019-03-16T00:49:41.421Z,22.23
2019-03-16T00:52:07.481Z,21.70
2019-03-16T00:54:33.368Z,17.70
2019-03-16T00:56:59.215Z,22.40
2019-03-16T00:59:25.107Z,16.23
2019-03-16T01:01:50.926Z,16.10
2019-03-16T01:04:16.857Z,18.00
2019-03-16T01:06:42.748Z,18.83
2019-03-16T01:09:08.581Z,16.47
2019-03-16T01:11:34.533Z,20.20
2019-03-16T01:14:00.424Z,15.27
2019-03-16T01:16:26.341Z,16.67
2019-03-16T01:18:52.169Z,19.23
2019-03-16T01:21:18.130Z,20.90
2019-03-16T01:23:44.085Z,19.87
2019-03-16T01:26:10.010Z,17.23
2019-03-16T01:28:35.901Z,17.07
2019-03-16T01:31:01.839Z,18.27
2019-03-16T01:33:27.668Z,17.70
2019-03-16T01:35:53.750Z,22.70
2019-03-16T01:38:19.715Z,13.73
2019-03-16T01:40:45.707Z,17.10
2019-03-16T01:43:11.526Z,16.03
2019-03-16T01:45:37.359Z,14.20
2019-03-16T01:48:03.440Z,14.67
2019-03-16T01:50:29.269Z,14.13
2019-03-16T01:52:55.211Z,13.67
2019-03-16T01:55:21.023Z,21.17
2019-03-16T01:57:46.862Z,16.73
2019-03-16T02:00:14.859Z,17.47
2019-03-16T02:02:53.847Z,14.70
2019-03-16T02:05:08.785Z,16.13
2019-03-16T02:07:34.613Z,18.40
2019-03-16T02:10:00.448Z,16.40
2019-03-16T02:12:26.443Z,19.90
2019-03-16T02:14:52.299Z,18.33
2019-03-16T02:17:18.151Z,15.60
2019-03-16T02:19:44.226Z,17.47
2019-03-16T02:22:10.020Z,18.10
2019-03-16T02:24:35.974Z,15.13
2019-03-16T02:27:02.084Z,14.17
2019-03-16T02:29:27.909Z,21.40
2019-03-16T02:31:53.832Z,16.30
2019-03-16T02:34:19.705Z,16.23
2019-03-16T02:36:50.241Z,20.43
2019-03-16T02:39:16.142Z,13.97
2019-03-16T02:41:41.991Z,17.67
2019-03-16T02:44:11.126Z,17.53
2019-03-16T02:46:35.824Z,15.33
2019-03-16T02:49:01.683Z,14.07
2019-03-16T02:51:27.518Z,20.53
2019-03-16T02:53:53.376Z,14.90
2019-03-16T02:56:19.208Z,15.00
2019-03-16T02:58:48.771Z,16.07
2019-03-16T03:01:14.818Z,14.10
2019-03-16T03:03:40.619Z,17.10
2019-03-16T03:06:06.458Z,15.20
2019-03-16T03:08:32.388Z,16.43
2019-03-16T03:10:58.367Z,15.57
2019-03-16T03:13:24.309Z,16.67
2019-03-16T03:15:50.194Z,17.07
2019-03-16T03:18:16.185Z,16.33
2019-03-16T03:20:42.021Z,15.73
2019-03-16T03:23:07.871Z,16.07
2019-03-16T03:25:33.718Z,15.13
2019-03-16T03:27:59.555Z,16.37
2019-03-16T03:30:25.512Z,17.77
2019-03-16T03:32:51.424Z,16.17
2019-03-16T03:35:17.260Z,13.33
2019-03-16T03:37:43.347Z,21.67
2019-03-16T03:40:10.481Z,15.77
2019-03-16T03:42:36.542Z,17.07
2019-03-16T03:45:04.710Z,15.33
2019-03-16T03:47:30.655Z,15.60
2019-03-16T03:49:56.602Z,16.23
2019-03-16T03:52:22.449Z,19.60
2019-03-16T03:54:48.380Z,18.00
2019-03-16T03:57:14.384Z,13.77
2019-03-16T03:59:40.480Z,20.10
2019-03-16T04:02:06.628Z,14.70
2019-03-16T04:04:32.579Z,16.37
2019-03-16T04:06:58.597Z,14.53
2019-03-16T04:09:24.749Z,16.13
2019-03-16T04:11:50.589Z,19.97
2019-03-16T04:14:16.506Z,15.23
2019-03-16T04:16:42.344Z,16.30
2019-03-16T04:19:08.182Z,19.73
2019-03-16T04:21:34.175Z,19.07
2019-03-16T04:24:00.004Z,18.07
2019-03-16T04:26:25.858Z,15.13
2019-03-16T04:28:51.790Z,21.27
2019-03-16T04:31:17.622Z,17.90
2019-03-16T04:33:43.462Z,27.60
2019-03-16T04:36:09.409Z,15.57
2019-03-16T04:38:35.258Z,14.23
2019-03-16T04:41:01.295Z,15.07
2019-03-16T04:43:27.153Z,14.17
2019-03-16T04:45:52.991Z,15.93
2019-03-16T04:48:18.813Z,18.17
2019-03-16T04:50:44.800Z,15.23
2019-03-16T04:53:10.617Z,14.03
2019-03-16T04:55:36.469Z,20.13
2019-03-16T04:58:02.504Z,12.63
2019-03-16T05:00:28.489Z,17.10
2019-03-16T05:02:54.337Z,15.50
2019-03-16T05:05:20.214Z,13.97
2019-03-16T05:07:46.057Z,16.13
2019-03-16T05:10:12.080Z,14.27
2019-03-16T05:12:38.077Z,12.63
2019-03-16T05:15:08.408Z,17.30
2019-03-16T05:17:34.240Z,17.37
2019-03-16T05:20:00.408Z,12.83
2019-03-16T05:22:26.278Z,15.47
2019-03-16T05:24:52.105Z,12.20
2019-03-16T05:27:18.173Z,19.83
2019-03-16T05:29:44.017Z,17.37
2019-03-16T05:32:09.945Z,16.07
2019-03-16T05:34:35.802Z,18.37
2019-03-16T05:37:01.725Z,17.40
2019-03-16T05:39:27.762Z,14.20
2019-03-16T05:41:53.590Z,21.80
2019-03-16T05:44:19.438Z,13.83
2019-03-16T05:46:45.281Z,16.07
2019-03-16T05:49:11.133Z,15.83
2019-03-16T05:51:37.107Z,18.60
2019-03-16T05:54:03.135Z,17.80
2019-03-16T05:56:28.982Z,18.73
2019-03-16T05:58:54.911Z,16.67
2019-03-16T06:01:20.788Z,13.97
2019-03-16T06:03:46.838Z,20.30
2019-03-16T06:06:12.736Z,20.50
2019-03-16T06:08:38.603Z,16.43
2019-03-16T06:11:04.403Z,18.73
2019-03-16T06:13:30.309Z,16.70
2019-03-16T06:15:56.226Z,19.80
2019-03-16T06:18:22.065Z,16.37
2019-03-16T06:20:48.017Z,23.30
2019-03-16T06:23:13.861Z,15.30
2019-03-16T06:25:39.771Z,15.23
2019-03-16T06:28:05.743Z,17.73
2019-03-16T06:30:31.547Z,17.13
2019-03-16T06:32:57.366Z,17.27
2019-03-16T06:35:25.038Z,14.57
2019-03-16T06:37:51.076Z,17.37
2019-03-16T06:40:16.913Z,17.73
2019-03-16T06:42:42.878Z,17.87
2019-03-16T06:45:10.485Z,20.07
2019-03-16T06:47:36.416Z,23.57
2019-03-16T06:50:13.419Z,16.37
2019-03-16T06:52:39.257Z,19.67
2019-03-16T06:55:06.177Z,20.57
2019-03-16T06:57:32.010Z,17.67
2019-03-16T06:59:57.821Z,21.63
2019-03-16T07:02:23.841Z,17.50
2019-03-16T07:04:49.691Z,12.47
2019-03-16T07:07:15.524Z,18.70
2019-03-16T07:09:41.574Z,13.67
2019-03-16T07:12:07.394Z,19.27
2019-03-16T07:14:33.373Z,17.20
2019-03-16T07:17:02.390Z,17.93
2019-03-16T07:19:27.038Z,15.17
2019-03-16T07:21:52.918Z,16.90
2019-03-16T07:24:18.741Z,14.20
2019-03-16T07:26:44.701Z,14.83
2019-03-16T07:29:10.550Z,18.33
2019-03-16T07:31:36.500Z,15.33
2019-03-16T07:34:02.468Z,22.10
2019-03-16T07:36:28.306Z,25.30
2019-03-16T07:38:54.269Z,25.60
2019-03-16T07:41:20.131Z,24.37
2019-03-16T07:43:45.957Z,31.00
2019-03-16T07:46:11.936Z,44.97
2019-03-16T07:48:37.786Z,50.80
2019-03-16T07:51:03.712Z,53.60
2019-03-16T07:53:29.556Z,58.07
2019-03-16T07:55:55.490Z,62.83
2019-03-16T07:58:21.452Z,61.07
2019-03-16T08:00:47.349Z,65.73
2019-03-16T08:03:13.385Z,82.40
2019-03-16T08:05:39.343Z,78.43
2019-03-16T08:08:05.271Z,81.63
2019-03-16T08:10:31.206Z,81.67
2019-03-16T08:12:57.081Z,86.40
2019-03-16T08:15:23.027Z,79.87
2019-03-16T08:17:48.935Z,79.47
2019-03-16T08:20:15.119Z,78.60
2019-03-16T08:22:41.079Z,82.10
2019-03-16T08:25:08.910Z,86.23
2019-03-16T08:27:34.790Z,78.30
2019-03-16T08:30:00.769Z,76.20
2019-03-16T08:32:26.588Z,81.90
2019-03-16T08:34:52.587Z,76.10
2019-03-16T08:37:18.445Z,77.67
2019-03-16T08:39:44.292Z,76.10
2019-03-16T08:42:12.266Z,69.73
2019-03-16T08:44:37.899Z,68.73
2019-03-16T08:47:07.509Z,70.23
2019-03-16T08:49:33.364Z,68.80
2019-03-16T08:51:59.233Z,73.83
2019-03-16T08:54:25.181Z,69.90
2019-03-16T08:56:51.139Z,68.67
2019-03-16T08:59:16.986Z,67.10
2019-03-16T09:01:42.953Z,62.27
2019-03-16T09:04:08.816Z,65.23
2019-03-16T09:06:34.799Z,64.93
2019-03-16T09:09:00.630Z,62.80
2019-03-16T09:11:26.453Z,61.10
2019-03-16T09:13:52.337Z,60.90
2019-03-16T09:16:18.187Z,71.20
2019-03-16T09:18:44.039Z,59.03
2019-03-16T09:21:09.918Z,55.57
2019-03-16T09:23:35.733Z,59.67
2019-03-16T09:26:01.600Z,59.83
2019-03-16T09:28:27.453Z,57.77
2019-03-16T09:30:56.324Z,54.17
2019-03-16T09:33:21.452Z,55.10
2019-03-16T09:35:47.353Z,50.70
2019-03-16T09:38:13.295Z,55.17
2019-03-16T09:40:39.244Z,55.53
2019-03-16T09:43:05.187Z,55.87
2019-03-16T09:45:31.390Z,56.67
2019-03-16T09:47:57.248Z,63.07
2019-03-16T09:50:23.204Z,55.37
2019-03-16T09:52:50.073Z,52.03
2019-03-16T09:55:16.015Z,56.13
2019-03-16T09:57:42.002Z,52.20
2019-03-16T10:00:10.929Z,51.37
2019-03-16T10:02:36.760Z,55.03
2019-03-16T10:05:04.013Z,51.20
2019-03-16T10:07:29.920Z,48.63
2019-03-16T10:09:55.761Z,54.37
2019-03-16T10:12:21.626Z,51.37
2019-03-16T10:14:47.562Z,46.03
2019-03-16T10:17:13.507Z,41.00
2019-03-16T10:19:39.451Z,54.17
2019-03-16T10:22:05.386Z,46.00
2019-03-16T10:24:31.275Z,44.57
2019-03-16T10:26:57.144Z,47.20
2019-03-16T10:29:23.006Z,45.03
2019-03-16T10:31:49.049Z,47.53
2019-03-16T10:34:14.901Z,47.63
2019-03-16T10:36:40.735Z,46.17
2019-03-16T10:39:06.626Z,46.77
2019-03-16T10:41:32.556Z,50.53
2019-03-16T10:43:58.390Z,43.77
2019-03-16T10:46:24.247Z,48.87
2019-03-16T10:48:50.080Z,52.00
2019-03-16T10:51:16.040Z,48.90
2019-03-16T10:53:41.952Z,48.13
2019-03-16T10:56:07.763Z,48.23
2019-03-16T10:58:33.608Z,44.03
2019-03-16T11:00:59.469Z,49.67
2019-03-16T11:03:25.340Z,52.30
2019-03-16T11:05:51.186Z,50.50
2019-03-16T11:08:17.011Z,49.33
2019-03-16T11:10:42.885Z,43.33
2019-03-16T11:13:08.924Z,47.23
2019-03-16T11:15:34.835Z,41.07
2019-03-16T11:18:00.681Z,40.10
2019-03-16T11:20:26.545Z,42.90
2019-03-16T11:22:52.376Z,44.73
2019-03-16T11:25:18.397Z,46.57
2019-03-16T11:27:44.245Z,47.37
2019-03-16T11:30:14.699Z,45.50
2019-03-16T11:32:40.772Z,49.43
2019-03-16T11:35:08.922Z,48.90
2019-03-16T11:37:34.745Z,44.90
2019-03-16T11:40:00.717Z,38.37
2019-03-16T11:42:26.571Z,34.97
2019-03-16T11:44:52.458Z,35.50
2019-03-16T11:47:18.312Z,32.23
2019-03-16T11:49:44.132Z,37.93
2019-03-16T11:52:10.100Z,42.30
2019-03-16T11:54:35.930Z,38.80
2019-03-16T11:57:01.763Z,34.97
2019-03-16T11:59:27.640Z,40.37
2019-03-16T12:02:04.801Z,37.13
2019-03-16T12:04:21.272Z,33.60
2019-03-16T12:06:47.175Z,35.20
2019-03-16T12:09:13.132Z,31.70
2019-03-16T12:11:39.176Z,34.20
2019-03-16T12:14:05.002Z,31.57
2019-03-16T12:16:30.949Z,33.17
2019-03-16T12:18:56.932Z,29.60
2019-03-16T12:21:22.835Z,31.23
2019-03-16T12:23:48.681Z,26.33
2019-03-16T12:26:14.629Z,29.57
2019-03-16T12:28:40.459Z,26.17
2019-03-16T12:31:06.414Z,31.83
2019-03-16T12:33:32.253Z,28.73
2019-03-16T12:35:58.081Z,29.17
2019-03-16T12:38:24.075Z,29.93
2019-03-16T12:40:50.013Z,29.93
2019-03-16T12:43:15.955Z,28.53
2019-03-16T12:45:41.828Z,27.90
2019-03-16T12:48:07.656Z,22.97
2019-03-16T12:50:33.624Z,26.43
2019-03-16T12:52:59.464Z,20.87
2019-03-16T12:55:25.415Z,19.00
2019-03-16T12:57:51.359Z,19.60
2019-03-16T13:00:19.430Z,20.15
2019-03-16T13:02:46.658Z,18.30
2019-03-16T13:05:12.687Z,19.75
2019-03-16T13:07:38.642Z,18.20
2019-03-16T13:10:11.306Z,20.75
2019-03-16T13:12:39.138Z,17.95
2019-03-16T13:15:06.982Z,23.47
2019-03-16T13:17:32.914Z,21.10
2019-03-16T13:19:58.725Z,15.48
2019-03-16T13:22:24.596Z,16.82
2019-03-16T13:24:50.913Z,18.98
2019-03-16T13:27:16.735Z,17.37
2019-03-16T13:29:58.215Z,17.55
2019-03-16T13:32:14.784Z,14.90
2019-03-16T13:34:41.957Z,14.75
2019-03-16T13:37:07.811Z,19.62
2019-03-16T13:39:33.725Z,15.43
2019-03-16T13:41:59.684Z,15.55
2019-03-16T13:44:25.498Z,14.50
2019-03-16T13:46:52.770Z,18.12
2019-03-16T13:49:18.642Z,15.18
2019-03-16T13:51:47.665Z,17.10
2019-03-16T13:54:13.627Z,14.20
2019-03-16T13:56:39.548Z,14.83
2019-03-16T13:59:05.403Z,17.37
2019-03-16T14:01:31.604Z,15.70
2019-03-16T14:03:57.527Z,12.98
2019-03-16T14:06:23.365Z,14.93
2019-03-16T14:08:49.457Z,16.55
2019-03-16T14:11:15.311Z,21.17
2019-03-16T14:13:41.134Z,18.82
2019-03-16T14:16:07.097Z,15.65
2019-03-16T14:18:32.942Z,18.73
2019-03-16T14:20:58.894Z,18.27
2019-03-16T14:23:24.738Z,21.62
2019-03-16T14:25:50.675Z,14.95
2019-03-16T14:28:16.914Z,19.15
2019-03-16T14:30:45.246Z,18.32
2019-03-16T14:33:11.466Z,15.95
2019-03-16T14:35:37.416Z,19.67
2019-03-16T14:38:03.363Z,17.07
2019-03-16T14:40:29.291Z,17.48
2019-03-16T14:42:55.212Z,17.10
2019-03-16T14:45:21.391Z,16.32
2019-03-16T14:47:47.213Z,16.20
2019-03-16T14:50:20.121Z,18.45
2019-03-16T14:52:46.172Z,19.60
2019-03-16T14:55:12.196Z,16.93
2019-03-16T14:57:38.120Z,15.53
2019-03-16T15:00:07.817Z,17.12
2019-03-16T15:02:33.873Z,19.55
2019-03-16T15:04:59.729Z,18.77
2019-03-16T15:07:25.705Z,17.55
2019-03-16T15:09:51.641Z,16.90
2019-03-16T15:12:17.497Z,20.10
2019-03-16T15:14:43.391Z,20.97
2019-03-16T15:17:09.440Z,20.77
2019-03-16T15:19:35.342Z,21.60
2019-03-16T15:22:01.227Z,14.28
2019-03-16T15:24:27.059Z,15.05
2019-03-16T15:26:53.017Z,15.63
2019-03-16T15:29:18.852Z,17.32
2019-03-16T15:31:44.816Z,12.47
2019-03-16T15:34:10.768Z,15.32
2019-03-16T15:36:36.625Z,11.30
2019-03-16T15:39:05.249Z,9.33
2019-03-16T15:41:31.088Z,14.20
2019-03-16T15:43:56.932Z,15.68
2019-03-16T15:46:23.058Z,11.97
2019-03-16T15:48:49.019Z,11.80
2019-03-16T15:51:14.834Z,13.40
2019-03-16T15:53:40.874Z,12.60
2019-03-16T15:56:06.851Z,15.28
2019-03-16T15:58:32.772Z,13.30
2019-03-16T16:01:03.643Z,10.50
2019-03-16T16:03:26.492Z,11.83
2019-03-16T16:05:52.524Z,16.30
2019-03-16T16:08:19.458Z,12.93
2019-03-16T16:10:45.539Z,13.30
2019-03-16T16:13:11.418Z,10.55
2019-03-16T16:15:37.269Z,19.82
2019-03-16T16:18:03.207Z,10.05
2019-03-16T16:20:29.245Z,14.25
2019-03-16T16:22:55.090Z,10.82
2019-03-16T16:25:20.916Z,9.75
2019-03-16T16:27:47.110Z,28.12
2019-03-16T16:30:19.950Z,33.08
2019-03-16T16:32:45.946Z,36.60
2019-03-16T16:35:12.827Z,35.78
2019-03-16T16:37:38.845Z,32.08
2019-03-16T16:40:14.677Z,40.23
2019-03-16T16:42:40.511Z,45.48
2019-03-16T16:45:09.151Z,48.78
2019-03-16T16:47:35.178Z,45.60
2019-03-16T16:50:01.035Z,44.53
2019-03-16T16:52:26.879Z,47.50
2019-03-16T16:54:52.810Z,55.53
2019-03-16T16:57:18.734Z,55.07
2019-03-16T16:59:44.586Z,57.27
2019-03-16T17:02:10.557Z,61.00
2019-03-16T17:04:36.509Z,56.50
2019-03-16T17:07:02.861Z,64.43
2019-03-16T17:09:28.790Z,56.60
2019-03-16T17:11:54.716Z,57.37
2019-03-16T17:14:20.596Z,53.40
2019-03-16T17:16:46.436Z,52.67
2019-03-16T17:19:12.331Z,51.43
2019-03-16T17:21:38.459Z,47.87
2019-03-16T17:24:04.515Z,45.10
2019-03-16T17:26:31.573Z,52.23
2019-03-16T17:28:57.407Z,45.93
2019-03-16T17:31:23.266Z,44.73
2019-03-16T17:33:49.193Z,44.20
2019-03-16T17:36:15.044Z,41.53
2019-03-16T17:38:40.990Z,44.67
2019-03-16T17:41:06.979Z,43.67
2019-03-16T17:43:33.194Z,43.27
2019-03-16T17:45:59.054Z,46.57
2019-03-16T17:48:24.901Z,45.37
2019-03-16T17:50:50.827Z,50.13
2019-03-16T17:53:16.657Z,42.73
2019-03-16T17:55:46.225Z,54.30
2019-03-16T17:58:12.297Z,45.93
2019-03-16T18:00:38.206Z,44.23
2019-03-16T18:03:04.274Z,49.20
2019-03-16T18:05:30.238Z,50.07
2019-03-16T18:07:56.192Z,55.63
2019-03-16T18:10:22.081Z,52.90
2019-03-16T18:12:48.270Z,46.50
2019-03-16T18:15:18.403Z,48.33
2019-03-16T18:17:44.321Z,54.00
2019-03-16T18:20:11.977Z,56.07
2019-03-16T18:22:37.781Z,55.53
2019-03-16T18:25:07.046Z,62.00
2019-03-16T18:27:32.977Z,66.80
2019-03-16T18:29:58.843Z,63.80
2019-03-16T18:32:24.702Z,63.83
2019-03-16T18:34:50.563Z,68.60
2019-03-16T18:37:16.509Z,74.70
2019-03-16T18:39:42.318Z,72.07
2019-03-16T18:42:08.163Z,69.63
2019-03-16T18:44:34.258Z,78.13
2019-03-16T18:47:00.095Z,69.80
2019-03-16T18:49:25.908Z,75.27
2019-03-16T18:51:51.837Z,74.67
2019-03-16T18:54:17.697Z,73.23
2019-03-16T18:56:43.795Z,71.60
2019-03-16T18:59:09.749Z,72.87
2019-03-16T19:01:35.604Z,66.93
2019-03-16T19:04:01.436Z,71.10
2019-03-16T19:06:27.325Z,74.00
2019-03-16T19:08:53.139Z,60.37
2019-03-16T19:11:18.977Z,71.50
2019-03-16T19:13:44.917Z,65.83
2019-03-16T19:16:10.764Z,65.50
2019-03-16T19:18:36.678Z,78.90
2019-03-16T19:21:02.870Z,71.03
2019-03-16T19:23:28.699Z,76.67
2019-03-16T19:25:54.536Z,79.57
2019-03-16T19:28:20.518Z,75.07
2019-03-16T19:30:46.383Z,70.87
2019-03-16T19:33:12.201Z,70.70
2019-03-16T19:35:38.103Z,70.67
2019-03-16T19:38:04.042Z,68.70
2019-03-16T19:40:29.970Z,60.67
2019-03-16T19:42:55.858Z,58.97
2019-03-16T19:45:21.707Z,59.97
2019-03-16T19:47:47.540Z,60.77
2019-03-16T19:50:14.388Z,61.30
2019-03-16T19:52:40.321Z,58.40
2019-03-16T19:55:10.976Z,58.57
2019-03-16T19:57:36.970Z,61.20
2019-03-16T20:00:05.884Z,60.80
2019-03-16T20:02:31.828Z,66.63
2019-03-16T20:04:57.647Z,64.33
2019-03-16T20:07:23.587Z,62.60
2019-03-16T20:09:49.443Z,57.93
2019-03-16T20:12:15.276Z,56.73
2019-03-16T20:14:41.182Z,58.63
2019-03-16T20:17:07.006Z,57.10
2019-03-16T20:19:32.844Z,56.47
2019-03-16T20:21:58.699Z,53.63
2019-03-16T20:24:24.660Z,56.97
2019-03-16T20:26:50.607Z,55.40
2019-03-16T20:29:16.487Z,53.53
2019-03-16T20:31:47.093Z,58.93
2019-03-16T20:34:10.134Z,53.00
2019-03-16T20:36:35.975Z,49.50
2019-03-16T20:39:03.710Z,52.40
2019-03-16T20:41:36.199Z,51.20
2019-03-16T20:43:57.465Z,50.27
2019-03-16T20:46:23.398Z,42.57
2019-03-16T20:48:49.300Z,49.53
2019-03-16T20:51:15.242Z,48.97
2019-03-16T20:53:41.080Z,42.80
2019-03-16T20:56:07.150Z,40.70
2019-03-16T20:58:37.103Z,42.73
2019-03-16T21:01:03.168Z,45.17
2019-03-16T21:03:28.989Z,49.90
2019-03-16T21:05:54.860Z,45.77
2019-03-16T21:08:20.828Z,46.93
2019-03-16T21:10:46.655Z,47.93
2019-03-16T21:13:12.557Z,52.43
2019-03-16T21:15:38.518Z,49.33
2019-03-16T21:18:04.578Z,50.00
2019-03-16T21:20:30.538Z,48.10
2019-03-16T21:22:56.575Z,49.67
2019-03-16T21:25:22.539Z,45.40
2019-03-16T21:27:48.546Z,48.80
2019-03-16T21:30:19.608Z,48.53
2019-03-16T21:32:45.628Z,43.90
2019-03-16T21:35:11.465Z,44.63
2019-03-16T21:37:37.416Z,51.40
2019-03-16T21:40:06.642Z,46.63
2019-03-16T21:42:32.611Z,42.27
2019-03-16T21:44:58.654Z,45.50
2019-03-16T21:47:24.970Z,43.80
2019-03-16T21:49:50.918Z,44.83
2019-03-16T21:52:16.975Z,49.93
2019-03-16T21:54:42.877Z,48.17
2019-03-16T21:57:08.977Z,44.57
2019-03-16T21:59:35.037Z,45.80
2019-03-16T22:02:01.132Z,45.77
2019-03-16T22:04:27.112Z,48.77
2019-03-16T22:06:52.936Z,52.47
2019-03-16T22:09:18.797Z,51.83
2019-03-16T22:11:44.674Z,47.13
2019-03-16T22:14:10.558Z,60.63
2019-03-16T22:16:36.512Z,62.47
2019-03-16T22:19:02.534Z,64.60
2019-03-16T22:21:28.513Z,65.30
2019-03-16T22:23:54.467Z,67.50
2019-03-16T22:26:20.340Z,66.60
2019-03-16T22:28:46.193Z,66.43
2019-03-16T22:31:12.118Z,66.40
2019-03-16T22:33:38.179Z,70.97
2019-03-16T22:36:04.115Z,65.43
2019-03-16T22:38:29.978Z,64.27
2019-03-16T22:40:55.854Z,61.33
2019-03-16T22:43:21.806Z,59.33
2019-03-16T22:45:47.700Z,65.30
2019-03-16T22:48:13.668Z,58.33
2019-03-16T22:50:39.713Z,57.10
2019-03-16T22:53:05.666Z,60.37
2019-03-16T22:55:31.587Z,61.60
2019-03-16T22:57:57.443Z,59.10
2019-03-16T23:00:25.668Z,62.40
2019-03-16T23:02:51.597Z,57.17
2019-03-16T23:05:17.654Z,61.93
2019-03-16T23:07:43.662Z,55.33
2019-03-16T23:10:10.705Z,59.53
2019-03-16T23:12:36.530Z,60.23
2019-03-16T23:15:04.910Z,58.33
2019-03-16T23:17:32.313Z,59.37
2019-03-16T23:19:58.137Z,61.13
2019-03-16T23:22:24.106Z,60.43
2019-03-16T23:24:49.932Z,62.70
2019-03-16T23:27:15.897Z,58.07
2019-03-16T23:29:41.791Z,67.13
2019-03-16T23:32:07.753Z,61.03
2019-03-16T23:34:33.629Z,60.87
2019-03-16T23:36:59.465Z,64.60
2019-03-16T23:39:25.329Z,57.43
2019-03-16T23:41:51.297Z,54.33
2019-03-16T23:44:17.223Z,60.43
2019-03-16T23:46:43.154Z,56.50
2019-03-16T23:49:09.049Z,61.40
2019-03-16T23:51:34.879Z,58.07
2019-03-16T23:54:00.817Z,59.67
2019-03-16T23:56:26.852Z,63.90
2019-03-16T23:58:52.945Z,62.43
